Time;durP1;ratioP1;P1;durP2;ratioP2;P2;SDS_P1;SDS_P2;PMS_P1;PMS_P2;Temp;Humidity;BMP_temperature;BMP_pressure;BME280_temperature;BME280_humidity;BME280_pressure;Samples;Min_cycle;Max_cycle;Signal;HPM_P1;HPM_P2
2023/09/11 00:01:43;;;;;;;8.68;7.88;;;;;;;19.30;100.00;96664.13;5108499;28;20628;-55
2023/09/11 00:04:09;;;;;;;9.32;7.90;;;;;;;19.26;100.00;96660.19;5105177;28;20208;-56
2023/09/11 00:06:37;;;;;;;8.85;8.05;;;;;;;19.23;100.00;96663.28;5097727;28;20208;-56
2023/09/11 00:09:04;;;;;;;9.10;8.30;;;;;;;19.23;100.00;96661.41;5114746;28;20212;-54
2023/09/11 00:11:30;;;;;;;9.65;8.82;;;;;;;19.22;100.00;96658.94;5109569;28;20224;-55
2023/09/11 00:13:58;;;;;;;8.68;8.07;;;;;;;19.18;100.00;96658.50;5115619;28;20212;-55
2023/09/11 00:16:26;;;;;;;9.10;8.32;;;;;;;19.19;100.00;96656.63;5119514;28;20217;-55
2023/09/11 00:18:56;;;;;;;8.80;8.00;;;;;;;19.19;100.00;96649.44;5118871;28;20269;-60
2023/09/11 00:21:22;;;;;;;9.57;8.77;;;;;;;19.15;100.00;96650.84;5108551;28;20304;-56
2023/09/11 00:23:49;;;;;;;8.32;7.72;;;;;;;19.10;100.00;96647.91;5118991;28;20201;-55
2023/09/11 00:26:15;;;;;;;9.77;8.25;;;;;;;19.04;100.00;96642.50;5120018;28;20201;-54
2023/09/11 00:28:42;;;;;;;9.85;8.85;;;;;;;19.03;100.00;96655.06;5122351;28;20324;-56
2023/09/11 00:31:09;;;;;;;8.95;8.20;;;;;;;18.99;100.00;96637.72;5122276;28;20208;-56
2023/09/11 00:33:36;;;;;;;9.75;8.82;;;;;;;18.97;100.00;96633.59;5124162;28;20197;-55
2023/09/11 00:36:02;;;;;;;9.10;8.40;;;;;;;18.93;100.00;96635.00;5118728;28;20511;-55
2023/09/11 00:38:29;;;;;;;9.93;9.02;;;;;;;18.89;100.00;96635.38;5117869;28;20236;-56
2023/09/11 00:40:55;;;;;;;10.07;8.98;;;;;;;18.87;100.00;96626.72;5111815;28;20201;-57
2023/09/11 00:43:23;;;;;;;9.32;8.63;;;;;;;18.88;100.00;96636.41;5110233;28;20216;-56
2023/09/11 00:45:51;;;;;;;10.02;9.05;;;;;;;18.82;100.00;96634.50;5117832;28;20208;-56
2023/09/11 00:48:20;;;;;;;9.82;8.70;;;;;;;18.81;100.00;96637.41;5105327;28;20210;-54
2023/09/11 00:50:47;;;;;;;9.70;8.60;;;;;;;18.77;100.00;96630.78;5115514;28;20227;-56
2023/09/11 00:53:14;;;;;;;9.18;8.45;;;;;;;18.75;100.00;96638.16;5115541;28;20263;-56
2023/09/11 00:55:43;;;;;;;9.02;8.32;;;;;;;18.76;100.00;96637.97;5102009;28;20655;-55
2023/09/11 00:58:09;;;;;;;10.13;8.50;;;;;;;18.72;100.00;96634.03;5092627;28;20235;-54
2023/09/11 01:00:36;;;;;;;8.73;7.93;;;;;;;18.74;100.00;96626.63;5120872;28;20216;-55
2023/09/11 01:03:05;;;;;;;9.55;8.70;;;;;;;18.76;100.00;96634.47;5108589;28;20232;-55
2023/09/11 01:05:34;;;;;;;9.45;8.68;;;;;;;18.78;100.00;96627.88;5119562;28;20221;-56
2023/09/11 01:08:01;;;;;;;9.77;8.80;;;;;;;18.78;100.00;96632.41;5112425;28;20212;-56
2023/09/11 01:10:28;;;;;;;9.40;8.70;;;;;;;18.74;100.00;96631.97;5105421;28;20265;-56
2023/09/11 01:12:54;;;;;;;9.32;8.65;;;;;;;18.68;100.00;96635.44;5106004;28;20289;-56
2023/09/11 01:15:21;;;;;;;10.60;9.70;;;;;;;18.66;100.00;96618.75;5105379;28;20291;-54
2023/09/11 01:17:56;;;;;;;9.90;9.00;;;;;;;18.61;100.00;96626.50;5121955;28;20316;-55
2023/09/11 01:20:42;;;;;;;9.90;9.10;;;;;;;18.61;100.00;96621.16;5124346;28;20216;-55
2023/09/11 01:23:22;;;;;;;9.52;8.82;;;;;;;18.62;100.00;96627.34;5118382;28;20224;-55
2023/09/11 01:26:19;;;;;;;9.50;8.70;;;;;;;18.60;100.00;96627.53;5115958;28;20216;-56
2023/09/11 01:29:11;;;;;;;9.70;8.90;;;;;;;18.55;100.00;96615.75;5112758;28;20233;-55
2023/09/11 01:31:39;;;;;;;10.10;9.07;;;;;;;18.52;100.00;96624.16;5098958;28;20263;-56
2023/09/11 01:34:06;;;;;;;9.50;8.68;;;;;;;18.52;100.00;96622.31;5114009;28;20232;-55
2023/09/11 01:36:33;;;;;;;10.02;9.13;;;;;;;18.50;100.00;96627.00;5114761;28;20205;-56
2023/09/11 01:39:00;;;;;;;9.50;8.63;;;;;;;18.47;100.00;96618.53;5113605;28;20217;-56
2023/09/11 01:41:27;;;;;;;9.15;8.25;;;;;;;18.45;100.00;96616.06;5114244;28;20193;-59
2023/09/11 01:44:00;;;;;;;9.73;8.82;;;;;;;18.47;100.00;96622.03;5114237;28;20210;-55
2023/09/11 01:46:28;;;;;;;9.65;8.65;;;;;;;18.49;100.00;96621.84;5113870;28;20189;-57
2023/09/11 01:48:56;;;;;;;9.10;8.40;;;;;;;18.46;100.00;96620.38;5113813;28;20209;-55
2023/09/11 01:51:22;;;;;;;9.93;9.10;;;;;;;18.45;100.00;96616.06;5113953;28;20223;-55
2023/09/11 01:53:49;;;;;;;9.80;9.00;;;;;;;18.42;100.00;96619.91;5113540;28;20633;-56
2023/09/11 01:56:16;;;;;;;9.70;8.80;;;;;;;18.44;100.00;96619.75;5112634;28;20630;-55
2023/09/11 01:58:44;;;;;;;10.55;9.63;;;;;;;18.46;100.00;96617.69;5113306;28;20228;-56
2023/09/11 02:01:10;;;;;;;9.82;8.93;;;;;;;18.42;100.00;96617.25;5114579;28;20197;-55
2023/09/11 02:03:40;;;;;;;9.50;8.70;;;;;;;18.40;100.00;96613.09;5113510;28;20212;-55
2023/09/11 02:06:07;;;;;;;11.38;9.68;;;;;;;18.40;100.00;96616.63;5114221;28;20304;-56
2023/09/11 02:08:33;;;;;;;10.32;9.43;;;;;;;18.37;100.00;96613.50;5113630;28;20307;-54
2023/09/11 02:11:00;;;;;;;9.90;9.10;;;;;;;18.34;100.00;96619.25;5113396;28;20201;-56
2023/09/11 02:13:26;;;;;;;10.18;9.27;;;;;;;18.34;100.00;96624.59;5113067;28;20659;-56
2023/09/11 02:15:53;;;;;;;10.13;9.20;;;;;;;18.30;100.00;96618.78;5113532;28;20641;-55
2023/09/11 02:18:20;;;;;;;9.48;8.77;;;;;;;18.30;100.00;96623.31;5112856;28;20229;-55
2023/09/11 02:20:48;;;;;;;11.05;9.63;;;;;;;18.31;100.00;96619.63;5113847;28;20216;-55
2023/09/11 02:23:15;;;;;;;10.20;9.30;;;;;;;18.28;100.00;96620.00;5114384;28;20193;-54
2023/09/11 02:25:41;;;;;;;11.23;9.60;;;;;;;18.25;100.00;96623.88;5108924;28;20621;-55
2023/09/11 02:28:08;;;;;;;10.20;9.25;;;;;;;18.23;100.00;96628.59;5113807;28;20221;-55
2023/09/11 02:30:34;;;;;;;10.35;9.50;;;;;;;18.20;100.00;96625.50;5112478;28;20204;-54
2023/09/11 02:33:01;;;;;;;10.32;9.48;;;;;;;18.20;100.00;96626.31;5112991;28;20212;-57
2023/09/11 02:35:31;;;;;;;9.98;9.18;;;;;;;18.14;100.00;96618.22;5112963;28;20197;-56
2023/09/11 02:37:59;;;;;;;9.80;9.00;;;;;;;18.13;100.00;96621.91;5112797;28;20221;-56
2023/09/11 02:40:27;;;;;;;10.02;9.00;;;;;;;18.10;100.00;96617.78;5112134;28;20290;-56
2023/09/11 02:42:53;;;;;;;9.90;9.02;;;;;;;18.10;100.00;96622.31;5112183;28;20200;-55
2023/09/11 02:45:20;;;;;;;9.95;9.15;;;;;;;18.06;100.00;96624.53;5111608;28;20284;-55
2023/09/11 02:47:46;;;;;;;9.90;9.07;;;;;;;18.03;100.00;96624.88;5113129;28;20635;-57
2023/09/11 02:50:13;;;;;;;9.25;8.52;;;;;;;18.04;100.00;96628.38;5113005;28;20193;-57
2023/09/11 02:52:43;;;;;;;9.77;9.00;;;;;;;18.04;100.00;96623.03;5112785;28;20684;-54
2023/09/11 02:55:11;;;;;;;10.80;9.70;;;;;;;18.02;100.00;96614.38;5111926;28;20209;-55
2023/09/11 02:57:38;;;;;;;10.65;9.75;;;;;;;18.00;100.00;96613.72;5112758;28;20225;-55
2023/09/11 03:00:06;;;;;;;10.32;9.40;;;;;;;17.99;100.00;96620.13;5112256;28;20209;-56
2023/09/11 03:02:33;;;;;;;10.40;9.52;;;;;;;17.98;100.00;96618.47;5113805;28;20216;-55
2023/09/11 03:04:59;;;;;;;11.55;9.10;;;;;;;17.99;100.00;96625.47;5113756;28;20295;-56
2023/09/11 03:07:25;;;;;;;11.40;9.95;;;;;;;17.98;100.00;96615.78;5113233;28;20205;-56
2023/09/11 03:09:52;;;;;;;10.95;9.95;;;;;;;18.01;100.00;96618.06;5111552;28;20225;-55
2023/09/11 03:12:20;;;;;;;10.27;9.27;;;;;;;18.01;100.00;96618.91;5113070;28;20521;-55
2023/09/11 03:14:46;;;;;;;9.68;9.00;;;;;;;17.97;100.00;96614.94;5113749;28;20248;-55
2023/09/11 03:17:14;;;;;;;10.63;9.68;;;;;;;17.95;100.00;96618.84;5112480;28;20202;-55
2023/09/11 03:19:40;;;;;;;10.18;9.38;;;;;;;17.96;100.00;96621.31;5113537;28;20231;-55
2023/09/11 03:22:07;;;;;;;9.88;9.13;;;;;;;17.98;100.00;96621.13;5113794;28;20197;-54
2023/09/11 03:24:33;;;;;;;10.27;9.48;;;;;;;17.92;100.00;96620.84;5115807;28;20212;-55
2023/09/11 03:27:00;;;;;;;10.70;9.70;;;;;;;17.97;100.00;96622.13;5118256;28;20205;-54
2023/09/11 03:29:27;;;;;;;11.15;10.02;;;;;;;17.92;100.00;96624.56;5116650;28;20240;-57
2023/09/11 03:31:54;;;;;;;10.30;9.48;;;;;;;17.87;100.00;96620.63;5114994;28;20212;-56
2023/09/11 03:34:20;;;;;;;10.38;9.55;;;;;;;17.85;100.00;96624.50;5112323;28;20197;-55
2023/09/11 03:36:47;;;;;;;10.68;9.73;;;;;;;17.81;100.00;96618.69;5112591;28;20673;-56
2023/09/11 03:39:13;;;;;;;11.07;10.13;;;;;;;17.78;100.00;96619.03;5111460;28;20221;-56
2023/09/11 03:41:40;;;;;;;10.48;9.40;;;;;;;17.77;100.00;96619.25;5113285;28;20216;-55
2023/09/11 03:44:07;;;;;;;10.50;9.57;;;;;;;17.75;100.00;96608.72;5112755;28;20216;-56
2023/09/11 03:46:34;;;;;;;10.07;9.23;;;;;;;17.72;100.00;96614.47;5113526;28;20209;-57
2023/09/11 03:49:01;;;;;;;10.13;9.27;;;;;;;17.71;100.00;96618.13;5114149;28;20204;-55
2023/09/11 03:51:28;;;;;;;10.98;10.07;;;;;;;17.66;100.00;96609.88;5106098;28;20211;-55
2023/09/11 03:53:55;;;;;;;12.40;11.40;;;;;;;17.65;100.00;96608.19;5121926;28;20571;-56
2023/09/11 03:56:21;;;;;;;12.13;11.02;;;;;;;17.65;100.00;96608.19;5121332;28;20201;-57
2023/09/11 03:58:47;;;;;;;10.05;9.25;;;;;;;17.64;100.00;96606.53;5119019;28;20224;-55
2023/09/11 04:01:14;;;;;;;10.57;9.68;;;;;;;17.64;100.00;96606.53;5119944;28;20208;-56
2023/09/11 04:03:43;;;;;;;10.65;9.68;;;;;;;17.63;100.00;96610.25;5128642;28;20249;-55
2023/09/11 04:06:09;;;;;;;11.23;10.23;;;;;;;17.57;100.00;96600.28;5122229;28;20517;-56
2023/09/11 04:08:36;;;;;;;10.57;9.77;;;;;;;17.57;100.00;96602.94;5120414;28;20205;-55
2023/09/11 04:11:02;;;;;;;10.77;9.88;;;;;;;17.60;100.00;96594.59;5119250;28;20208;-54
2023/09/11 04:13:29;;;;;;;11.13;10.13;;;;;;;17.57;100.00;96594.94;5101393;28;20215;-57
2023/09/11 04:15:57;;;;;;;10.75;9.73;;;;;;;17.55;100.00;96602.28;5121005;28;20196;-55
2023/09/11 04:18:23;;;;;;;10.85;9.88;;;;;;;17.55;100.00;96602.28;5121887;28;20221;-56
2023/09/11 04:20:51;;;;;;;10.63;9.73;;;;;;;17.54;100.00;96599.78;5122316;28;20288;-56
2023/09/11 04:23:18;;;;;;;10.82;9.93;;;;;;;17.53;100.00;96599.00;5120297;28;20197;-56
2023/09/11 04:25:45;;;;;;;11.00;10.00;;;;;;;17.50;100.00;96593.19;5121298;28;20208;-56
2023/09/11 04:28:11;;;;;;;11.50;10.60;;;;;;;17.51;100.00;96595.66;5120441;28;20236;-56
2023/09/11 04:30:38;;;;;;;11.70;10.80;;;;;;;17.51;100.00;96595.66;5123642;28;20212;-56
2023/09/11 04:33:05;;;;;;;11.15;9.93;;;;;;;17.52;100.00;96597.31;5123970;28;20204;-56
2023/09/11 04:35:32;;;;;;;11.15;10.20;;;;;;;17.50;100.00;96601.22;5118549;28;20216;-55
2023/09/11 04:38:03;;;;;;;11.07;10.07;;;;;;;17.48;100.00;96596.03;5117992;28;20698;-55
2023/09/11 04:40:30;;;;;;;11.55;10.55;;;;;;;17.47;100.00;96594.38;5116955;28;20647;-54
2023/09/11 04:42:56;;;;;;;10.77;9.98;;;;;;;17.43;100.00;96596.59;5118386;28;20449;-55
2023/09/11 04:45:23;;;;;;;10.60;9.80;;;;;;;17.44;100.00;96597.41;5117574;28;20211;-55
2023/09/11 04:47:50;;;;;;;11.25;10.25;;;;;;;17.43;100.00;96598.44;5118860;28;20201;-55
2023/09/11 04:50:17;;;;;;;11.38;10.38;;;;;;;17.45;100.00;96609.78;5118549;28;20294;-55
2023/09/11 04:52:44;;;;;;;11.02;10.02;;;;;;;17.44;100.00;96605.44;5117467;28;20227;-56
2023/09/11 04:55:12;;;;;;;11.55;10.65;;;;;;;17.43;100.00;96614.47;5118079;28;20205;-55
2023/09/11 04:57:39;;;;;;;11.63;10.63;;;;;;;17.42;100.00;96610.16;5118093;28;20201;-55
2023/09/11 05:00:09;;;;;;;12.68;11.20;;;;;;;17.42;100.00;96610.16;5118539;28;20564;-55
2023/09/11 05:02:36;;;;;;;10.40;9.60;;;;;;;17.37;100.00;96615.22;5114635;28;20205;-54
2023/09/11 05:05:03;;;;;;;12.52;11.27;;;;;;;17.37;100.00;96609.88;5115697;28;20193;-57
2023/09/11 05:07:30;;;;;;;12.52;10.60;;;;;;;17.39;100.00;96607.88;5115319;28;20213;-54
2023/09/11 05:09:56;;;;;;;11.98;10.55;;;;;;;17.37;100.00;96610.72;5116115;28;20193;-55
2023/09/11 05:12:24;;;;;;;11.07;10.18;;;;;;;17.40;100.00;96612.19;5115666;28;20210;-54
2023/09/11 05:14:52;;;;;;;10.55;9.73;;;;;;;17.39;100.00;96613.22;5117036;28;20197;-55
2023/09/11 05:17:20;;;;;;;11.43;10.48;;;;;;;17.41;100.00;96605.81;5115880;28;20634;-55
2023/09/11 05:19:46;;;;;;;10.95;10.02;;;;;;;17.39;100.00;96615.88;5114137;28;20225;-55
2023/09/11 05:22:12;;;;;;;11.05;10.15;;;;;;;17.42;100.00;96607.47;5115560;28;20211;-54
2023/09/11 05:24:39;;;;;;;11.50;10.40;;;;;;;17.45;100.00;96612.47;5118079;28;20216;-57
2023/09/11 05:27:06;;;;;;;11.38;10.48;;;;;;;17.49;100.00;96615.59;5121738;28;20197;-58
2023/09/11 05:29:34;;;;;;;11.90;10.82;;;;;;;17.49;100.00;96611.06;5123403;28;20225;-54
2023/09/11 05:32:01;;;;;;;11.98;10.75;;;;;;;17.48;100.00;96617.44;5118775;28;20205;-55
2023/09/11 05:34:28;;;;;;;12.25;11.25;;;;;;;17.52;100.00;96617.88;5115124;28;20201;-55
2023/09/11 05:36:58;;;;;;;11.50;10.50;;;;;;;17.51;100.00;96625.06;5115131;28;20204;-55
2023/09/11 05:39:26;;;;;;;11.88;10.90;;;;;;;17.58;100.00;96619.84;5114053;28;20225;-54
2023/09/11 05:41:52;;;;;;;11.00;10.18;;;;;;;17.63;100.00;96623.63;5116941;28;20232;-55
2023/09/11 05:44:19;;;;;;;11.38;10.35;;;;;;;17.63;100.00;96626.28;5117880;28;20202;-54
2023/09/11 05:46:49;;;;;;;11.77;10.60;;;;;;;17.65;100.00;96626.09;5118763;28;20201;-54
2023/09/11 05:49:15;;;;;;;11.70;10.80;;;;;;;17.68;100.00;96621.19;5116082;28;20189;-54
2023/09/11 05:51:43;;;;;;;12.20;11.02;;;;;;;17.74;100.00;96623.16;5118029;28;20224;-54
2023/09/11 05:54:11;;;;;;;12.70;11.70;;;;;;;17.81;100.00;96617.88;5119046;28;20333;-54
2023/09/11 05:56:42;;;;;;;12.18;11.15;;;;;;;17.90;100.00;96620.22;5122129;28;20233;-53
2023/09/11 05:59:09;;;;;;;13.02;11.82;;;;;;;17.97;100.00;96619.47;5121933;28;20202;-54
2023/09/11 06:01:36;;;;;;;13.25;12.05;;;;;;;18.04;100.00;96617.69;5118765;28;20197;-55
2023/09/11 06:04:04;;;;;;;12.88;11.77;;;;;;;18.16;100.00;96617.00;5119790;28;20201;-54
2023/09/11 06:06:31;;;;;;;14.13;12.82;;;;;;;18.37;100.00;96613.50;5118841;28;20216;-55
2023/09/11 06:08:57;;;;;;;13.45;12.35;;;;;;;18.65;100.00;96617.06;5118360;28;20292;-55
2023/09/11 06:11:24;;;;;;;13.52;12.43;;;;;;;19.00;100.00;96611.75;5120359;28;20212;-56
2023/09/11 06:13:50;;;;;;;13.30;12.07;;;;;;;19.41;100.00;96623.41;5118744;28;20193;-54
2023/09/11 06:16:17;;;;;;;12.52;11.43;;;;;;;19.71;100.00;96619.41;5117808;28;20208;-54
2023/09/11 06:18:44;;;;;;;11.57;10.60;;;;;;;19.71;100.00;96624.75;5118643;28;20221;-55
2023/09/11 06:21:12;;;;;;;12.40;11.27;;;;;;;20.07;100.00;96631.69;5117071;28;21352;-55
2023/09/11 06:23:39;;;;;;;12.00;11.10;;;;;;;20.58;100.00;96616.72;5120777;28;20193;-55
2023/09/11 06:26:05;;;;;;;11.52;10.27;;;;;;;21.36;100.00;96623.13;5113933;28;20209;-54
2023/09/11 06:28:32;;;;;;;12.20;10.90;;;;;;;22.23;100.00;96633.34;5114153;28;20225;-53
2023/09/11 06:30:59;;;;;;;14.18;11.43;;;;;;;22.97;100.00;96629.94;5112568;28;20202;-52
2023/09/11 06:33:27;;;;;;;13.13;11.68;;;;;;;23.64;100.00;96638.00;5111933;28;20213;-53
2023/09/11 06:35:53;;;;;;;14.25;11.00;;;;;;;24.11;100.00;96627.47;5111914;28;20638;-53
2023/09/11 06:38:21;;;;;;;17.35;11.77;;;;;;;24.79;97.32;96636.06;5112659;28;20526;-53
2023/09/11 06:40:48;;;;;;;12.38;11.18;;;;;;;25.14;95.95;96634.25;5112313;28;20277;-54
2023/09/11 06:43:15;;;;;;;14.20;12.80;;;;;;;24.83;94.82;96633.72;5111954;28;20209;-53
2023/09/11 06:45:41;;;;;;;14.32;13.05;;;;;;;25.37;90.09;96627.19;5111392;28;20204;-53
2023/09/11 06:48:08;;;;;;;14.35;13.20;;;;;;;25.60;87.72;96628.03;5111851;28;20197;-54
2023/09/11 06:50:35;;;;;;;14.57;13.10;;;;;;;25.50;88.84;96632.38;5112128;28;20527;-53
2023/09/11 06:53:01;;;;;;;14.55;13.25;;;;;;;25.63;89.63;96626.72;5111769;28;20201;-53
2023/09/11 06:55:29;;;;;;;12.82;11.63;;;;;;;25.89;87.56;96622.69;5111402;28;20246;-52
2023/09/11 06:57:57;;;;;;;12.73;11.43;;;;;;;25.63;91.59;96622.13;5111670;28;20217;-53
2023/09/11 07:00:24;;;;;;;12.48;11.48;;;;;;;25.62;89.93;96623.19;5111567;28;20229;-53
2023/09/11 07:02:50;;;;;;;12.90;11.80;;;;;;;25.86;86.53;96625.88;5112065;28;20197;-54
2023/09/11 07:05:18;;;;;;;11.77;10.88;;;;;;;25.95;86.74;96624.41;5112200;28;20201;-55
2023/09/11 07:07:45;;;;;;;12.68;11.57;;;;;;;25.67;90.15;96623.31;5112541;28;20201;-54
2023/09/11 07:10:12;;;;;;;13.32;12.13;;;;;;;25.40;89.88;96622.13;5112429;28;20288;-54
2023/09/11 07:12:40;;;;;;;12.90;11.45;;;;;;;25.36;91.18;96620.97;5111850;28;20193;-54
2023/09/11 07:15:07;;;;;;;12.80;11.70;;;;;;;24.99;90.26;96619.53;5112094;28;20325;-53
2023/09/11 07:17:35;;;;;;;13.55;12.02;;;;;;;24.42;96.72;96623.72;5111700;28;20197;-56
2023/09/11 07:20:03;;;;;;;12.27;10.98;;;;;;;24.17;100.00;96618.47;5107812;28;20577;-53
2023/09/11 07:22:29;;;;;;;12.88;11.70;;;;;;;23.92;100.00;96617.72;5111592;28;20637;-54
2023/09/11 07:24:56;;;;;;;11.57;10.57;;;;;;;23.51;100.00;96619.25;5111358;28;20197;-54
2023/09/11 07:27:22;;;;;;;12.75;11.60;;;;;;;23.46;100.00;96613.69;5111629;28;20209;-55
2023/09/11 07:29:50;;;;;;;12.38;11.27;;;;;;;23.25;100.00;96616.78;5111334;28;20248;-54
2023/09/11 07:32:17;;;;;;;12.48;11.38;;;;;;;23.17;100.00;96619.78;5111906;28;20228;-54
2023/09/11 07:34:44;;;;;;;12.98;11.73;;;;;;;23.20;100.00;96616.66;5114238;28;20212;-53
2023/09/11 07:37:10;;;;;;;11.85;10.95;;;;;;;23.11;100.00;96616.09;5117892;28;20201;-54
2023/09/11 07:39:39;;;;;;;12.25;11.15;;;;;;;23.31;100.00;96616.72;5117585;28;20221;-53
2023/09/11 07:42:10;;;;;;;12.68;11.50;;;;;;;23.34;100.00;96614.66;5115726;28;20659;-54
2023/09/11 07:44:36;;;;;;;12.63;11.63;;;;;;;23.45;100.00;96619.34;5110774;28;20289;-54
2023/09/11 07:47:04;;;;;;;11.23;10.23;;;;;;;23.43;100.00;96611.44;5110149;28;20205;-54
2023/09/11 07:49:31;;;;;;;12.43;11.45;;;;;;;23.52;100.00;96618.22;5110475;28;20201;-52
2023/09/11 07:51:57;;;;;;;12.48;11.35;;;;;;;23.58;100.00;96622.72;5111158;28;20589;-55
2023/09/11 07:54:24;;;;;;;13.00;11.70;;;;;;;23.55;100.00;96620.47;5110841;28;20232;-54
2023/09/11 07:56:52;;;;;;;12.25;11.25;;;;;;;23.57;100.00;96615.66;5111084;28;20540;-54
2023/09/11 07:59:18;;;;;;;12.13;11.20;;;;;;;23.48;100.00;96625.13;5110970;28;20232;-52
2023/09/11 08:01:46;;;;;;;12.05;10.80;;;;;;;23.50;100.00;96623.00;5110399;28;20208;-55
2023/09/11 08:04:14;;;;;;;11.45;10.35;;;;;;;23.56;100.00;96621.28;5110531;28;20209;-54
2023/09/11 08:06:41;;;;;;;11.63;10.52;;;;;;;23.58;100.00;96617.31;5112163;28;20219;-54
2023/09/11 08:09:07;;;;;;;11.25;10.35;;;;;;;23.62;100.00;96618.53;5112021;28;20225;-54
2023/09/11 08:11:34;;;;;;;12.15;10.90;;;;;;;23.55;100.00;96616.94;5118815;28;20291;-54
2023/09/11 08:14:01;;;;;;;12.68;11.00;;;;;;;23.57;100.00;96623.75;5133118;28;20271;-56
2023/09/11 08:16:27;;;;;;;12.85;11.65;;;;;;;23.53;100.00;96617.16;5132401;28;20197;-54
2023/09/11 08:18:54;;;;;;;12.63;11.45;;;;;;;23.62;100.00;96617.69;5110493;28;20209;-54
2023/09/11 08:21:21;;;;;;;14.88;11.32;;;;;;;23.68;100.00;96620.31;5109699;28;20239;-53
2023/09/11 08:23:48;;;;;;;15.50;10.77;;;;;;;23.78;100.00;96614.38;5109467;28;20204;-54
2023/09/11 08:26:15;;;;;;;13.50;12.30;;;;;;;23.99;100.00;96605.78;5109957;28;20201;-53
2023/09/11 08:28:42;;;;;;;12.70;11.50;;;;;;;24.03;100.00;96611.56;5109790;28;20545;-54
2023/09/11 08:31:08;;;;;;;12.48;11.20;;;;;;;24.14;100.00;96610.81;5109504;28;20193;-54
2023/09/11 08:33:35;;;;;;;12.52;11.07;;;;;;;24.33;99.80;96615.13;5109619;28;20193;-55
2023/09/11 08:36:04;;;;;;;12.23;11.02;;;;;;;24.60;100.00;96610.16;5112203;28;20216;-55
2023/09/11 08:38:32;;;;;;;11.75;10.75;;;;;;;24.85;98.99;96610.00;5114374;28;20254;-55
2023/09/11 08:40:58;;;;;;;11.68;10.68;;;;;;;25.08;98.32;96605.41;5113089;28;20229;-54
2023/09/11 08:43:25;;;;;;;10.98;9.98;;;;;;;25.35;98.40;96613.91;5113721;28;20200;-56
2023/09/11 08:45:54;;;;;;;11.25;10.25;;;;;;;25.58;95.84;96610.34;5113845;28;20236;-54
2023/09/11 08:48:22;;;;;;;11.40;10.40;;;;;;;25.74;94.62;96609.63;5112651;28;20204;-54
2023/09/11 08:50:50;;;;;;;12.10;10.32;;;;;;;26.01;95.48;96599.06;5113127;28;20201;-56
2023/09/11 08:53:18;;;;;;;10.80;9.82;;;;;;;26.21;91.76;96611.19;5113390;28;20615;-56
2023/09/11 08:55:47;;;;;;;10.98;9.98;;;;;;;26.42;91.25;96603.41;5113211;28;20197;-56
2023/09/11 08:58:15;;;;;;;11.15;10.00;;;;;;;26.64;90.19;96599.72;5113099;28;20208;-53
2023/09/11 09:00:42;;;;;;;11.60;10.50;;;;;;;26.79;89.97;96592.91;5112898;28;20693;-56
2023/09/11 09:03:09;;;;;;;11.35;10.45;;;;;;;26.85;87.31;96592.81;5113194;28;20201;-53
2023/09/11 09:05:36;;;;;;;10.15;9.35;;;;;;;27.18;86.97;96590.06;5113310;28;20507;-54
2023/09/11 09:08:04;;;;;;;10.38;9.52;;;;;;;27.47;87.13;96596.22;5113495;28;20206;-58
2023/09/11 09:10:31;;;;;;;11.52;9.88;;;;;;;27.36;82.98;96591.69;5113186;28;20197;-56
2023/09/11 09:12:58;;;;;;;10.68;9.70;;;;;;;27.60;83.79;96589.59;5113344;28;20216;-56
2023/09/11 09:15:25;;;;;;;11.25;9.98;;;;;;;27.52;82.62;96590.03;5113145;28;20219;-54
2023/09/11 09:17:52;;;;;;;10.38;9.48;;;;;;;27.91;82.40;96585.38;5114251;28;20193;-54
2023/09/11 09:20:20;;;;;;;10.43;9.52;;;;;;;28.07;84.71;96587.22;5115366;28;20229;-57
2023/09/11 09:22:56;;;;;;;11.27;10.32;;;;;;;28.07;80.87;96576.34;5113220;28;20235;-54
2023/09/11 09:25:22;;;;;;;10.82;9.82;;;;;;;28.14;80.49;96585.13;5112961;28;20609;-56
2023/09/11 09:27:49;;;;;;;9.82;8.93;;;;;;;28.47;83.20;96574.06;5112853;28;20209;-56
2023/09/11 09:30:21;;;;;;;10.80;9.80;;;;;;;28.39;79.71;96579.97;5113305;28;20197;-56
2023/09/11 09:32:48;;;;;;;10.30;9.38;;;;;;;28.45;80.62;96581.66;5112820;28;20210;-55
2023/09/11 09:35:15;;;;;;;9.93;8.55;;;;;;;28.50;79.93;96578.97;5113005;28;20628;-55
2023/09/11 09:37:49;;;;;;;10.20;9.20;;;;;;;28.67;79.00;96577.00;5112790;28;20201;-54
2023/09/11 09:40:28;;;;;;;10.07;9.07;;;;;;;28.91;79.00;96569.28;5113112;28;20516;-55
2023/09/11 09:42:54;;;;;;;11.05;9.70;;;;;;;28.76;76.13;96573.81;5113047;28;20189;-55
2023/09/11 09:45:30;;;;;;;9.98;9.02;;;;;;;29.10;77.73;96566.97;5112422;28;20552;-55
2023/09/11 09:48:10;;;;;;;9.55;8.85;;;;;;;29.20;76.16;96564.31;5114580;28;20208;-56
2023/09/11 09:50:58;;;;;;;8.85;8.20;;;;;;;29.46;76.10;96560.72;5118636;28;20201;-56
2023/09/11 09:53:27;;;;;;;9.93;8.98;;;;;;;29.12;71.55;96570.28;5118854;28;20209;-56
2023/09/11 09:55:55;;;;;;;11.30;10.30;;;;;;;29.12;74.25;96560.19;5113892;27;20250;-56
2023/09/11 09:58:24;;;;;;;10.02;9.10;;;;;;;29.27;72.40;96545.88;5112520;28;20201;-54
2023/09/11 10:00:58;;;;;;;11.02;8.93;;;;;;;29.49;73.37;96546.56;5113211;28;20224;-57
2023/09/11 10:03:24;;;;;;;9.23;8.45;;;;;;;29.69;73.75;96550.47;5112571;28;20285;-55
2023/09/11 10:05:51;;;;;;;9.90;8.90;;;;;;;29.68;72.31;96546.94;5112871;28;20201;-56
2023/09/11 10:08:18;;;;;;;10.02;9.02;;;;;;;29.73;71.59;96546.09;5112131;28;20209;-55
2023/09/11 10:10:44;;;;;;;9.40;8.50;;;;;;;29.71;72.06;96534.66;5112308;28;20238;-56
2023/09/11 10:13:12;;;;;;;9.65;8.90;;;;;;;30.01;69.99;96534.78;5111999;27;20221;-56
2023/09/11 10:15:41;;;;;;;9.20;8.50;;;;;;;30.06;68.75;96529.34;5112610;28;20785;-57
2023/09/11 10:18:10;;;;;;;9.18;8.43;;;;;;;30.05;69.31;96533.16;5111716;28;20239;-58
2023/09/11 10:20:37;;;;;;;9.05;8.13;;;;;;;30.10;67.41;96530.47;5111551;28;20232;-56
2023/09/11 10:23:05;;;;;;;8.98;8.18;;;;;;;30.15;67.39;96522.28;5111435;28;20208;-56
2023/09/11 10:25:34;;;;;;;8.88;8.18;;;;;;;30.21;68.63;96523.94;5110412;28;20205;-56
2023/09/11 10:28:03;;;;;;;9.13;8.30;;;;;;;30.31;69.30;96521.22;5110954;28;20252;-54
2023/09/11 10:30:35;;;;;;;8.98;8.13;;;;;;;30.41;68.39;96507.63;5112216;28;20197;-56
2023/09/11 10:33:07;;;;;;;9.30;8.50;;;;;;;30.51;68.69;96510.34;5112339;28;20216;-55
2023/09/11 10:35:40;;;;;;;8.10;7.50;;;;;;;30.84;69.50;96508.16;5112579;28;20216;-54
2023/09/11 10:38:09;;;;;;;8.45;7.85;;;;;;;30.86;65.05;96503.25;5111639;28;20189;-55
2023/09/11 10:40:37;;;;;;;8.10;7.50;;;;;;;30.85;65.02;96501.63;5111796;28;20576;-55
2023/09/11 10:43:04;;;;;;;9.00;7.82;;;;;;;30.80;63.78;96504.34;5111728;28;20262;-55
2023/09/11 10:45:32;;;;;;;8.50;7.80;;;;;;;31.16;66.72;96496.94;5111376;28;20193;-54
2023/09/11 10:47:59;;;;;;;8.63;7.30;;;;;;;31.28;63.29;96501.03;5112011;28;20193;-55
2023/09/11 10:50:30;;;;;;;7.80;7.15;;;;;;;31.37;63.98;96499.34;5110866;28;20201;-56
2023/09/11 10:52:58;;;;;;;8.30;7.50;;;;;;;31.43;64.08;96498.22;5111590;28;20189;-55
2023/09/11 10:55:25;;;;;;;7.85;7.25;;;;;;;31.52;64.39;96490.31;5110979;28;20197;-56
2023/09/11 10:57:53;;;;;;;11.45;7.75;;;;;;;31.43;62.26;96491.94;5111518;28;20201;-56
2023/09/11 11:00:21;;;;;;;8.70;7.70;;;;;;;31.36;62.47;96486.78;5110142;28;20240;-56
2023/09/11 11:02:48;;;;;;;8.43;7.80;;;;;;;31.66;63.85;96485.06;5110978;28;20209;-54
2023/09/11 11:05:15;;;;;;;8.60;7.72;;;;;;;31.63;62.82;96485.63;5111385;28;20213;-56
2023/09/11 11:07:42;;;;;;;7.93;7.32;;;;;;;31.64;63.23;96479.06;5111547;28;20702;-55
2023/09/11 11:10:15;;;;;;;7.72;7.15;;;;;;;31.76;63.96;96479.53;5110716;28;20646;-56
2023/09/11 11:12:42;;;;;;;8.70;7.95;;;;;;;31.87;61.18;96471.00;5111511;28;20521;-55
2023/09/11 11:15:19;;;;;;;8.70;7.90;;;;;;;31.88;60.23;96474.56;5110666;28;20215;-55
2023/09/11 11:17:46;;;;;;;8.32;7.60;;;;;;;31.85;62.42;96475.13;5111773;28;20213;-55
2023/09/11 11:20:16;;;;;;;9.00;7.75;;;;;;;31.84;59.61;96471.59;5110489;28;20244;-54
2023/09/11 11:22:43;;;;;;;8.82;8.00;;;;;;;31.55;59.93;96465.97;5110484;28;20563;-55